createdAt,value
2023-02-07T00:01:23.315Z,63.73
2023-02-07T00:03:52.138Z,64.32
2023-02-07T00:06:25.910Z,63.23
2023-02-07T00:08:56.612Z,62.83
2023-02-07T00:11:24.581Z,61.99
2023-02-07T00:13:55.139Z,61.90
2023-02-07T00:16:22.977Z,61.25
2023-02-07T00:18:50.219Z,61.59
2023-02-07T00:21:19.286Z,61.79
2023-02-07T00:23:47.805Z,62.50
2023-02-07T00:26:17.117Z,62.32
2023-02-07T00:28:44.909Z,61.88
2023-02-07T00:31:13.282Z,62.21
2023-02-07T00:33:42.712Z,62.12
2023-02-07T00:36:13.106Z,61.72
2023-02-07T00:38:40.403Z,61.90
2023-02-07T00:41:07.844Z,61.94
2023-02-07T00:43:35.524Z,61.79
2023-02-07T00:46:05.763Z,61.27
2023-02-07T00:48:34.377Z,61.92
2023-02-07T00:51:02.408Z,62.16
2023-02-07T00:53:29.985Z,62.38
2023-02-07T00:55:58.392Z,63.13
2023-02-07T00:58:25.756Z,63.32
2023-02-07T01:00:53.611Z,64.04
2023-02-07T01:03:20.974Z,63.58
2023-02-07T01:05:47.877Z,63.77
2023-02-07T01:08:15.385Z,63.25
2023-02-07T01:10:45.786Z,63.00
2023-02-07T01:13:14.813Z,62.76
2023-02-07T01:15:46.801Z,63.86
2023-02-07T01:18:15.291Z,63.52
2023-02-07T01:20:43.048Z,63.14
2023-02-07T01:23:12.347Z,63.15
2023-02-07T01:25:40.177Z,63.06
2023-02-07T01:28:08.208Z,63.17
2023-02-07T01:30:35.467Z,63.48
2023-02-07T01:33:02.635Z,62.88
2023-02-07T01:35:29.504Z,62.81
2023-02-07T01:37:59.275Z,63.43
2023-02-07T01:40:27.399Z,63.39
2023-02-07T01:42:57.839Z,63.27
2023-02-07T01:45:27.656Z,64.39
2023-02-07T01:47:59.578Z,66.34
2023-02-07T01:50:26.777Z,65.77
2023-02-07T01:52:55.063Z,65.47
2023-02-07T01:55:31.042Z,65.60
2023-02-07T01:57:59.042Z,64.99
2023-02-07T02:00:27.097Z,64.59
2023-02-07T02:02:54.272Z,64.39
2023-02-07T02:05:22.674Z,64.71
2023-02-07T02:08:08.071Z,65.14
2023-02-07T02:11:19.772Z,64.37
2023-02-07T02:14:24.039Z,64.28
2023-02-07T02:17:29.117Z,65.05
2023-02-07T02:20:40.138Z,65.38
2023-02-07T02:23:43.774Z,66.14
2023-02-07T02:27:04.796Z,66.67
2023-02-07T02:30:31.399Z,66.67
2023-02-07T02:33:51.230Z,67.47
2023-02-07T02:36:51.974Z,66.61
2023-02-07T02:39:56.939Z,66.43
2023-02-07T02:43:09.837Z,65.90
2023-02-07T02:46:02.113Z,66.40
2023-02-07T02:48:49.943Z,66.01
2023-02-07T02:51:35.739Z,66.26
2023-02-07T02:54:21.465Z,67.24
2023-02-07T02:57:27.047Z,67.10
2023-02-07T03:00:30.960Z,66.95
2023-02-07T03:03:38.323Z,66.98
2023-02-07T03:06:51.583Z,66.84
2023-02-07T03:09:45.996Z,67.96
2023-02-07T03:12:42.105Z,68.57
2023-02-07T03:15:34.480Z,68.87
2023-02-07T03:18:15.398Z,68.38
2023-02-07T03:20:56.323Z,67.76
2023-02-07T03:23:24.302Z,67.84
2023-02-07T03:25:54.010Z,67.82
2023-02-07T03:28:27.282Z,68.61
2023-02-07T03:30:59.305Z,68.83
2023-02-07T03:33:27.793Z,68.66
2023-02-07T03:36:25.718Z,68.97
2023-02-07T03:38:55.670Z,67.83
2023-02-07T03:41:38.615Z,67.80
2023-02-07T03:44:08.830Z,67.57
2023-02-07T03:46:38.033Z,67.00
2023-02-07T03:49:07.822Z,67.02
2023-02-07T03:51:36.554Z,65.48
2023-02-07T03:54:05.363Z,65.74
2023-02-07T03:56:32.805Z,65.45
2023-02-07T03:59:01.105Z,67.37
2023-02-07T04:01:28.659Z,67.96
2023-02-07T04:03:55.602Z,66.85
2023-02-07T04:06:23.033Z,66.44
2023-02-07T04:08:53.051Z,66.52
2023-02-07T04:11:20.014Z,65.89
2023-02-07T04:13:47.722Z,65.61
2023-02-07T04:16:18.238Z,66.22
2023-02-07T04:18:47.427Z,66.61
2023-02-07T04:21:15.324Z,67.01
2023-02-07T04:23:42.480Z,66.75
2023-02-07T04:26:10.458Z,68.90
2023-02-07T04:28:37.582Z,68.47
2023-02-07T04:31:04.671Z,68.75
2023-02-07T04:33:31.725Z,68.90
2023-02-07T04:36:01.344Z,68.82
2023-02-07T04:38:29.342Z,68.90
2023-02-07T04:41:03.706Z,68.70
2023-02-07T04:43:32.832Z,68.08
2023-02-07T04:46:01.074Z,67.38
2023-02-07T04:48:28.530Z,67.03
2023-02-07T04:50:58.905Z,67.63
2023-02-07T04:53:26.045Z,67.38
2023-02-07T04:55:54.175Z,68.24
2023-02-07T04:58:22.733Z,68.72
2023-02-07T05:00:50.211Z,69.29
2023-02-07T05:03:17.675Z,69.39
2023-02-07T05:05:46.065Z,69.41
2023-02-07T05:08:14.031Z,69.09
2023-02-07T05:10:41.428Z,69.18
2023-02-07T05:13:08.897Z,69.62
2023-02-07T05:15:38.787Z,69.06
2023-02-07T05:18:06.785Z,69.12
2023-02-07T05:20:33.847Z,68.92
2023-02-07T05:23:02.666Z,68.14
2023-02-07T05:25:31.726Z,67.10
2023-02-07T05:27:58.747Z,65.90
2023-02-07T05:30:26.257Z,66.19
2023-02-07T05:33:05.813Z,65.09
2023-02-07T05:35:38.427Z,65.26
2023-02-07T05:38:09.757Z,64.35
2023-02-07T05:40:42.989Z,64.67
2023-02-07T05:43:11.339Z,66.39
2023-02-07T05:45:40.116Z,66.30
2023-02-07T05:48:09.835Z,66.22
2023-02-07T05:50:36.957Z,66.46
2023-02-07T05:53:08.561Z,67.29
2023-02-07T05:55:36.370Z,66.57
2023-02-07T05:58:03.406Z,66.87
2023-02-07T06:00:31.176Z,67.29
2023-02-07T06:03:01.026Z,67.54
2023-02-07T06:05:31.959Z,66.99
2023-02-07T06:08:00.138Z,67.02
2023-02-07T06:10:27.183Z,67.18
2023-02-07T06:12:55.028Z,67.06
2023-02-07T06:15:22.106Z,67.34
2023-02-07T06:17:50.546Z,66.87
2023-02-07T06:20:18.795Z,67.38
2023-02-07T06:22:47.174Z,68.01
2023-02-07T06:25:15.100Z,67.50
2023-02-07T06:27:44.799Z,67.45
2023-02-07T06:30:13.185Z,66.50
2023-02-07T06:32:40.280Z,66.11
2023-02-07T06:35:09.302Z,66.62
2023-02-07T06:37:38.954Z,65.68
2023-02-07T06:40:07.179Z,65.05
2023-02-07T06:42:34.987Z,65.92
2023-02-07T06:45:02.809Z,65.83
2023-02-07T06:47:30.620Z,65.77
2023-02-07T06:49:58.501Z,65.52
2023-02-07T06:52:26.344Z,64.99
2023-02-07T06:54:53.489Z,64.11
2023-02-07T06:57:21.303Z,64.49
2023-02-07T06:59:49.525Z,64.51
2023-02-07T07:02:17.571Z,64.87
2023-02-07T07:04:45.577Z,65.63
2023-02-07T07:07:14.104Z,64.64
2023-02-07T07:09:41.086Z,65.48
2023-02-07T07:12:10.705Z,64.42
2023-02-07T07:14:37.845Z,63.80
2023-02-07T07:17:07.544Z,62.97
2023-02-07T07:19:35.634Z,62.28
2023-02-07T07:22:03.394Z,61.97
2023-02-07T07:24:30.459Z,62.76
2023-02-07T07:26:57.530Z,62.11
2023-02-07T07:29:25.765Z,61.99
2023-02-07T07:31:53.523Z,61.82
2023-02-07T07:34:21.082Z,62.06
2023-02-07T07:36:48.944Z,61.45
2023-02-07T07:39:17.216Z,60.80
2023-02-07T07:41:47.098Z,60.41
2023-02-07T07:44:14.826Z,59.80
2023-02-07T07:46:44.631Z,59.28
2023-02-07T07:49:12.604Z,59.73
2023-02-07T07:51:40.415Z,60.26
2023-02-07T07:54:08.168Z,59.77
2023-02-07T07:56:36.315Z,59.92
2023-02-07T07:59:05.990Z,60.65
2023-02-07T08:01:39.969Z,61.16
2023-02-07T08:04:07.932Z,60.73
2023-02-07T08:06:37.716Z,60.35
2023-02-07T08:09:05.670Z,59.66
2023-02-07T08:11:34.505Z,59.27
2023-02-07T08:14:02.346Z,58.77
2023-02-07T08:16:32.182Z,58.24
2023-02-07T08:19:01.791Z,57.65
2023-02-07T08:21:29.688Z,57.35
2023-02-07T08:23:59.732Z,57.83
2023-02-07T08:26:27.469Z,57.34
2023-02-07T08:28:54.506Z,57.06
2023-02-07T08:31:23.443Z,57.11
2023-02-07T08:33:50.471Z,57.62
2023-02-07T08:36:18.175Z,57.03
2023-02-07T08:38:45.919Z,57.10
2023-02-07T08:41:12.874Z,57.00
2023-02-07T08:43:40.625Z,55.70
2023-02-07T08:46:08.294Z,54.18
2023-02-07T08:48:36.045Z,53.93
2023-02-07T08:51:10.099Z,53.83
2023-02-07T08:53:37.207Z,53.87
2023-02-07T08:56:04.705Z,54.05
2023-02-07T08:58:32.496Z,52.79
2023-02-07T09:00:59.490Z,52.03
2023-02-07T09:03:27.254Z,51.29
2023-02-07T09:05:59.183Z,51.31
2023-02-07T09:08:44.424Z,51.58
2023-02-07T09:11:30.008Z,51.04
2023-02-07T09:14:15.648Z,50.60
2023-02-07T09:17:01.020Z,50.59
2023-02-07T09:19:46.680Z,50.34
2023-02-07T09:22:31.913Z,50.44
2023-02-07T09:25:17.329Z,48.78
2023-02-07T09:28:02.831Z,49.32
2023-02-07T09:30:51.357Z,49.53
2023-02-07T09:33:39.407Z,50.42
2023-02-07T09:36:47.717Z,49.20
2023-02-07T09:39:36.304Z,48.86
2023-02-07T09:42:49.312Z,47.86
2023-02-07T09:45:41.869Z,48.08
2023-02-07T09:49:09.543Z,47.84
2023-02-07T09:51:56.105Z,48.37
2023-02-07T09:54:54.120Z,48.95
2023-02-07T09:57:52.137Z,49.23
2023-02-07T10:00:41.394Z,50.47
2023-02-07T10:03:29.914Z,50.65
2023-02-07T10:06:22.979Z,50.99
2023-02-07T10:08:54.558Z,51.01
2023-02-07T10:11:52.575Z,50.85
2023-02-07T10:14:22.188Z,50.86
2023-02-07T10:16:58.301Z,50.27
2023-02-07T10:19:52.877Z,50.59
2023-02-07T10:22:30.911Z,50.69
2023-02-07T10:25:19.510Z,49.86
2023-02-07T10:27:57.559Z,49.66
2023-02-07T10:30:29.178Z,49.07
2023-02-07T10:33:05.294Z,49.13
2023-02-07T10:35:37.388Z,48.82
2023-02-07T10:38:27.718Z,48.50
2023-02-07T10:41:03.249Z,47.91
2023-02-07T10:43:34.766Z,48.09
2023-02-07T10:46:09.042Z,47.74
2023-02-07T10:48:37.410Z,48.23
2023-02-07T10:51:33.223Z,47.83
2023-02-07T10:54:12.634Z,47.53
2023-02-07T10:56:50.475Z,47.10
2023-02-07T10:59:46.338Z,47.83
2023-02-07T11:02:28.398Z,48.39
2023-02-07T11:04:58.589Z,48.39
2023-02-07T11:07:28.212Z,48.89
2023-02-07T11:10:23.495Z,49.16
2023-02-07T11:12:56.335Z,48.71
2023-02-07T11:15:37.136Z,48.63
2023-02-07T11:18:05.603Z,48.41
2023-02-07T11:20:38.682Z,49.11
2023-02-07T11:23:15.383Z,48.88
2023-02-07T11:25:46.003Z,48.53
2023-02-07T11:28:33.787Z,48.09
2023-02-07T11:31:06.172Z,48.50
2023-02-07T11:33:36.603Z,48.94
2023-02-07T11:36:07.418Z,48.80
2023-02-07T11:38:41.246Z,47.98
2023-02-07T11:41:18.281Z,49.67
2023-02-07T11:43:55.761Z,49.92
2023-02-07T11:46:36.593Z,49.13
2023-02-07T11:49:26.233Z,47.52
2023-02-07T11:51:59.097Z,47.97
2023-02-07T11:54:28.511Z,47.71
2023-02-07T11:57:14.336Z,47.29
2023-02-07T12:00:09.045Z,47.40
2023-02-07T12:02:37.073Z,47.83
2023-02-07T12:05:22.403Z,46.92
2023-02-07T12:07:57.653Z,46.39
2023-02-07T12:10:31.893Z,46.04
2023-02-07T12:13:07.963Z,45.05
2023-02-07T12:15:49.556Z,44.47
2023-02-07T12:18:48.863Z,44.23
2023-02-07T12:21:22.684Z,43.93
2023-02-07T12:24:09.081Z,43.12
2023-02-07T12:26:52.347Z,42.43
2023-02-07T12:29:57.811Z,42.43
2023-02-07T12:33:20.167Z,42.67
2023-02-07T12:36:12.236Z,42.06
2023-02-07T12:39:11.626Z,42.69
2023-02-07T12:41:48.429Z,42.49
2023-02-07T12:44:40.439Z,42.38
2023-02-07T12:47:17.478Z,42.35
2023-02-07T12:50:01.597Z,41.70
2023-02-07T12:52:28.417Z,41.77
2023-02-07T12:55:09.304Z,41.14
2023-02-07T12:57:54.220Z,41.14
2023-02-07T13:00:49.808Z,41.74
2023-02-07T13:03:41.667Z,41.88
2023-02-07T13:06:47.105Z,42.48
2023-02-07T13:09:28.394Z,43.06
2023-02-07T13:12:07.680Z,43.48
2023-02-07T13:14:55.964Z,42.98
2023-02-07T13:17:22.859Z,41.91
2023-02-07T13:19:56.009Z,40.34
2023-02-07T13:22:43.134Z,40.66
2023-02-07T13:25:30.334Z,42.70
2023-02-07T13:28:01.615Z,44.03
2023-02-07T13:30:30.949Z,44.36
2023-02-07T13:33:17.346Z,43.24
2023-02-07T13:35:47.254Z,42.97
2023-02-07T13:38:37.907Z,42.50
2023-02-07T13:41:15.677Z,45.73
2023-02-07T13:44:09.688Z,45.50
2023-02-07T13:46:47.014Z,44.47
2023-02-07T13:49:30.473Z,42.98
2023-02-07T13:52:06.039Z,42.35
2023-02-07T13:54:52.247Z,42.30
2023-02-07T13:58:07.037Z,42.48
2023-02-07T14:00:53.162Z,42.85
2023-02-07T14:03:29.384Z,43.80
2023-02-07T14:06:20.562Z,42.82
2023-02-07T14:09:00.268Z,43.17
2023-02-07T14:11:40.100Z,44.82
2023-02-07T14:14:27.369Z,44.76
2023-02-07T14:16:58.619Z,45.09
2023-02-07T14:19:41.345Z,45.52
2023-02-07T14:22:31.401Z,46.40
2023-02-07T14:25:03.810Z,46.49
2023-02-07T14:28:03.804Z,46.48
2023-02-07T14:30:38.583Z,45.34
2023-02-07T14:33:22.377Z,45.60
2023-02-07T14:36:18.853Z,45.60
2023-02-07T14:39:05.911Z,44.69
2023-02-07T14:41:39.068Z,44.23
2023-02-07T14:44:19.229Z,45.33
2023-02-07T14:46:55.911Z,44.43
2023-02-07T14:49:48.279Z,44.15
2023-02-07T14:52:28.832Z,44.02
2023-02-07T14:55:07.098Z,43.21
2023-02-07T14:57:37.892Z,42.50
2023-02-07T15:00:15.605Z,42.76
2023-02-07T15:02:44.529Z,42.38
2023-02-07T15:05:27.962Z,41.71
2023-02-07T15:08:03.833Z,42.20
2023-02-07T15:10:35.541Z,42.51
2023-02-07T15:13:07.000Z,42.54
2023-02-07T15:16:08.510Z,42.29
2023-02-07T15:18:40.438Z,42.08
2023-02-07T15:21:27.972Z,42.04
2023-02-07T15:24:04.342Z,42.19
2023-02-07T15:26:35.294Z,42.57
2023-02-07T15:29:08.011Z,42.57
2023-02-07T15:31:41.624Z,42.51
2023-02-07T15:34:19.467Z,42.68
2023-02-07T15:36:51.471Z,43.41
2023-02-07T15:39:23.287Z,43.30
2023-02-07T15:41:54.751Z,43.31
2023-02-07T15:44:26.559Z,42.89
2023-02-07T15:47:07.831Z,43.29
2023-02-07T15:49:41.609Z,43.59
2023-02-07T15:52:38.949Z,43.16
2023-02-07T15:55:24.575Z,43.04
2023-02-07T15:57:53.851Z,44.19
2023-02-07T16:00:24.934Z,42.22
2023-02-07T16:03:00.350Z,43.40
2023-02-07T16:05:33.811Z,43.33
2023-02-07T16:08:01.748Z,43.86
2023-02-07T16:10:40.716Z,44.64
2023-02-07T16:13:11.259Z,44.04
2023-02-07T16:15:52.057Z,44.67
2023-02-07T16:18:42.896Z,45.56
2023-02-07T16:21:18.366Z,45.88
2023-02-07T16:23:49.336Z,45.24
2023-02-07T16:26:21.373Z,44.70
2023-02-07T16:28:48.782Z,43.98
2023-02-07T16:31:18.331Z,45.98
2023-02-07T16:33:45.494Z,44.98
2023-02-07T16:36:18.142Z,45.12
2023-02-07T16:38:46.366Z,45.40
2023-02-07T16:41:27.086Z,44.74
2023-02-07T16:43:55.606Z,44.17
2023-02-07T16:46:23.400Z,44.20
2023-02-07T16:48:53.080Z,44.90
2023-02-07T16:51:21.646Z,44.65
2023-02-07T16:53:48.683Z,44.81
2023-02-07T16:56:24.910Z,44.37
2023-02-07T16:58:52.967Z,45.64
2023-02-07T17:01:21.648Z,45.62
2023-02-07T17:03:48.920Z,46.11
2023-02-07T17:06:21.162Z,46.07
2023-02-07T17:08:52.022Z,47.18
2023-02-07T17:11:27.150Z,47.87
2023-02-07T17:13:56.376Z,47.49
2023-02-07T17:16:26.389Z,47.02
2023-02-07T17:18:53.710Z,46.84
2023-02-07T17:21:25.940Z,46.87
2023-02-07T17:23:53.123Z,46.93
2023-02-07T17:26:29.100Z,47.05
2023-02-07T17:28:57.610Z,47.37
2023-02-07T17:31:25.082Z,47.17
2023-02-07T17:33:53.840Z,47.20
2023-02-07T17:36:21.278Z,47.92
2023-02-07T17:38:48.359Z,48.02
2023-02-07T17:41:17.318Z,48.30
2023-02-07T17:43:45.064Z,48.87
2023-02-07T17:46:27.608Z,50.44
2023-02-07T17:48:55.479Z,50.44
2023-02-07T17:51:24.758Z,50.71
2023-02-07T17:53:53.778Z,50.59
2023-02-07T17:56:29.725Z,50.75
2023-02-07T17:59:00.766Z,50.48
2023-02-07T18:01:30.651Z,50.10
2023-02-07T18:03:57.900Z,51.07
2023-02-07T18:06:27.469Z,50.61
2023-02-07T18:08:57.473Z,50.81
2023-02-07T18:11:26.662Z,50.65
2023-02-07T18:13:56.315Z,51.39
2023-02-07T18:16:27.240Z,50.58
2023-02-07T18:18:59.040Z,51.42
2023-02-07T18:21:26.361Z,51.69
2023-02-07T18:23:56.546Z,51.05
2023-02-07T18:26:31.577Z,53.30
2023-02-07T18:28:58.825Z,51.29
2023-02-07T18:31:35.641Z,51.59
2023-02-07T18:34:02.558Z,51.57
2023-02-07T18:36:40.612Z,51.72
2023-02-07T18:39:13.263Z,52.03
2023-02-07T18:41:40.521Z,52.41
2023-02-07T18:44:07.992Z,52.30
2023-02-07T18:46:37.603Z,52.35
2023-02-07T18:49:04.585Z,53.23
2023-02-07T18:51:31.830Z,52.11
2023-02-07T18:53:58.935Z,52.49
2023-02-07T18:56:26.839Z,53.01
2023-02-07T18:58:56.725Z,53.11
2023-02-07T19:01:26.165Z,53.68
2023-02-07T19:03:55.583Z,53.87
2023-02-07T19:06:26.241Z,53.65
2023-02-07T19:08:54.325Z,53.11
2023-02-07T19:11:21.697Z,54.39
2023-02-07T19:13:49.212Z,53.95
2023-02-07T19:16:22.680Z,55.29
2023-02-07T19:18:53.849Z,56.39
2023-02-07T19:21:29.821Z,56.23
2023-02-07T19:24:06.295Z,56.49
2023-02-07T19:26:35.475Z,56.68
2023-02-07T19:29:05.354Z,56.54
2023-02-07T19:31:34.030Z,55.69
2023-02-07T19:34:02.201Z,56.48
2023-02-07T19:36:31.412Z,56.93
2023-02-07T19:38:59.298Z,57.50
2023-02-07T19:41:30.776Z,56.83
2023-02-07T19:43:59.067Z,57.92
2023-02-07T19:46:26.722Z,58.84
2023-02-07T19:48:55.653Z,59.37
2023-02-07T19:51:26.860Z,60.14
2023-02-07T19:53:55.595Z,60.99
2023-02-07T19:56:29.137Z,61.02
2023-02-07T19:58:56.869Z,60.92
2023-02-07T20:01:26.621Z,60.32
2023-02-07T20:03:58.831Z,60.57
2023-02-07T20:06:33.145Z,60.70
2023-02-07T20:09:03.197Z,61.20
2023-02-07T20:11:31.366Z,61.23
2023-02-07T20:14:06.077Z,62.03
2023-02-07T20:16:36.782Z,61.44
2023-02-07T20:19:08.088Z,63.05
2023-02-07T20:21:36.556Z,62.95
2023-02-07T20:24:04.710Z,62.54
2023-02-07T20:26:36.834Z,61.89
2023-02-07T20:29:09.585Z,61.88
2023-02-07T20:31:39.859Z,61.91
2023-02-07T20:34:08.227Z,61.87
2023-02-07T20:36:41.542Z,62.49
2023-02-07T20:39:15.157Z,62.34
2023-02-07T20:41:46.413Z,63.07
2023-02-07T20:44:20.527Z,64.68
2023-02-07T20:46:49.341Z,62.85
2023-02-07T20:49:21.307Z,62.67
2023-02-07T20:51:51.842Z,62.63
2023-02-07T20:54:22.312Z,62.26
2023-02-07T20:56:51.829Z,62.67
2023-02-07T20:59:22.136Z,63.26
2023-02-07T21:01:50.280Z,62.89
2023-02-07T21:04:18.682Z,63.18
2023-02-07T21:06:49.071Z,62.20
2023-02-07T21:09:16.700Z,61.72
2023-02-07T21:11:52.383Z,62.23
2023-02-07T21:14:26.029Z,62.92
2023-02-07T21:16:55.582Z,63.21
2023-02-07T21:19:24.481Z,63.17
2023-02-07T21:21:55.225Z,62.70
2023-02-07T21:24:22.993Z,63.41
2023-02-07T21:26:51.905Z,64.08
2023-02-07T21:29:23.909Z,63.29
2023-02-07T21:31:52.641Z,63.16
2023-02-07T21:34:26.090Z,63.13
2023-02-07T21:36:54.665Z,63.33
2023-02-07T21:39:24.894Z,64.08
2023-02-07T21:41:53.396Z,63.87
2023-02-07T21:44:22.356Z,63.27
2023-02-07T21:46:52.987Z,63.01
2023-02-07T21:49:27.027Z,62.60
2023-02-07T21:51:55.087Z,63.69
2023-02-07T21:54:22.947Z,63.15
2023-02-07T21:56:51.662Z,63.33
2023-02-07T21:59:20.720Z,64.43
2023-02-07T22:01:54.338Z,63.23
2023-02-07T22:04:25.584Z,63.95
2023-02-07T22:06:56.285Z,65.83
2023-02-07T22:09:27.183Z,64.17
2023-02-07T22:11:56.662Z,63.10
2023-02-07T22:14:35.419Z,63.38
2023-02-07T22:17:06.087Z,64.12
2023-02-07T22:19:34.837Z,63.86
2023-02-07T22:22:05.932Z,64.91
2023-02-07T22:24:33.189Z,64.44
2023-02-07T22:27:01.298Z,65.08
2023-02-07T22:29:29.198Z,64.67
2023-02-07T22:31:57.409Z,64.16
2023-02-07T22:34:25.698Z,64.20
2023-02-07T22:36:52.817Z,63.76
2023-02-07T22:39:21.179Z,64.61
2023-02-07T22:41:51.148Z,64.57
2023-02-07T22:44:19.152Z,63.75
2023-02-07T22:46:47.441Z,63.32
2023-02-07T22:49:15.453Z,64.50
2023-02-07T22:51:42.556Z,64.90
2023-02-07T22:54:16.934Z,64.69
2023-02-07T22:56:46.091Z,64.09
2023-02-07T22:59:14.625Z,63.66
2023-02-07T23:01:45.897Z,63.60
2023-02-07T23:04:17.485Z,63.16
2023-02-07T23:06:47.293Z,63.64
2023-02-07T23:09:17.214Z,63.96
2023-02-07T23:11:44.642Z,64.72
2023-02-07T23:14:11.914Z,64.75
2023-02-07T23:16:40.805Z,64.71
2023-02-07T23:19:14.586Z,64.16
2023-02-07T23:21:42.105Z,64.02
2023-02-07T23:24:10.953Z,64.04
2023-02-07T23:26:40.835Z,64.04
2023-02-07T23:29:09.029Z,63.38
2023-02-07T23:31:36.942Z,62.87
2023-02-07T23:34:05.013Z,63.58
2023-02-07T23:36:33.324Z,63.75
2023-02-07T23:39:02.045Z,63.41
2023-02-07T23:41:41.686Z,63.14
2023-02-07T23:44:11.045Z,63.32
2023-02-07T23:46:43.810Z,63.12
2023-02-07T23:49:12.056Z,62.72
2023-02-07T23:51:40.140Z,62.19
2023-02-07T23:54:08.472Z,62.25
2023-02-07T23:56:36.315Z,62.20
2023-02-07T23:59:04.589Z,61.83
